Time;durP1;ratioP1;P1;durP2;ratioP2;P2;SDS_P1;SDS_P2;PMS_P1;PMS_P2;Temp;Humidity;BMP_temperature;BMP_pressure;BME280_temperature;BME280_humidity;BME280_pressure;Samples;Min_cycle;Max_cycle;Signal;HPM_P1;HPM_P2
2021/01/29 00:00:50;;;;;;;8.80;3.15;;;4.90;99.90;;;;;;1857442;76;21470;-78
2021/01/29 00:03:19;;;;;;;6.30;2.90;;;4.90;99.90;;;;;;1855657;76;21092;-78
2021/01/29 00:05:51;;;;;;;10.30;3.25;;;4.80;99.90;;;;;;1857690;76;21152;-77
2021/01/29 00:08:20;;;;;;;9.98;3.33;;;4.80;99.90;;;;;;1856214;76;21137;-78
2021/01/29 00:10:48;;;;;;;8.45;3.33;;;4.70;99.90;;;;;;1858737;76;21875;-79
2021/01/29 00:13:16;;;;;;;8.18;3.62;;;4.70;99.90;;;;;;1856400;76;21085;-82
2021/01/29 00:15:43;;;;;;;6.60;3.00;;;4.80;99.90;;;;;;1858815;76;21104;-80
2021/01/29 00:18:12;;;;;;;7.87;3.35;;;4.70;99.90;;;;;;1855550;76;21652;-78
2021/01/29 00:20:40;;;;;;;9.83;3.30;;;4.70;99.90;;;;;;1857634;76;21132;-78
2021/01/29 00:23:07;;;;;;;5.17;2.77;;;4.70;99.90;;;;;;1856301;76;21085;-77
2021/01/29 00:25:38;;;;;;;6.20;2.85;;;4.80;99.90;;;;;;1852926;76;21092;-76
2021/01/29 00:28:06;;;;;;;6.12;2.70;;;4.90;99.90;;;;;;1858079;76;21216;-77
2021/01/29 00:30:36;;;;;;;8.43;3.37;;;4.90;99.90;;;;;;1857395;76;21057;-75
2021/01/29 00:33:06;;;;;;;6.15;3.02;;;4.80;99.90;;;;;;1858741;76;21609;-76
2021/01/29 00:35:34;;;;;;;14.73;4.08;;;4.80;99.90;;;;;;1855261;76;21113;-76
2021/01/29 00:38:03;;;;;;;6.97;2.87;;;4.80;99.90;;;;;;1860510;76;21257;-77
2021/01/29 00:40:31;;;;;;;10.43;3.40;;;4.70;99.90;;;;;;1857783;76;21062;-76
2021/01/29 00:42:58;;;;;;;9.43;3.20;;;4.60;99.90;;;;;;1859724;76;21112;-77
2021/01/29 00:45:29;;;;;;;11.22;3.50;;;4.60;99.90;;;;;;1858336;76;21036;-79
2021/01/29 00:47:57;;;;;;;7.47;2.95;;;4.70;99.90;;;;;;1857343;76;21086;-77
2021/01/29 00:50:25;;;;;;;8.03;2.95;;;4.70;99.90;;;;;;1859682;76;21235;-77
2021/01/29 00:52:53;;;;;;;13.72;2.87;;;4.60;99.90;;;;;;1855706;76;21748;-77
2021/01/29 00:55:22;;;;;;;9.63;3.52;;;4.70;99.90;;;;;;1856528;76;21113;-78
2021/01/29 00:57:49;;;;;;;8.93;3.05;;;4.80;99.90;;;;;;1853522;76;21587;-76
2021/01/29 01:00:18;;;;;;;5.92;2.75;;;4.70;99.90;;;;;;1855610;76;21462;-78
2021/01/29 01:02:47;;;;;;;12.23;5.05;;;4.70;99.90;;;;;;1860544;76;21121;-78
2021/01/29 01:05:16;;;;;;;7.37;3.15;;;4.80;99.90;;;;;;1854487;76;21085;-79
2021/01/29 01:07:44;;;;;;;5.70;2.83;;;4.60;99.90;;;;;;1857085;76;21132;-78
2021/01/29 01:10:12;;;;;;;9.20;2.98;;;4.60;99.90;;;;;;1857659;76;21167;-78
2021/01/29 01:12:40;;;;;;;6.08;2.72;;;4.50;99.90;;;;;;1856625;76;21187;-80
2021/01/29 01:15:13;;;;;;;4.92;2.70;;;4.50;99.90;;;;;;1855838;76;21113;-80
2021/01/29 01:17:42;;;;;;;8.15;2.85;;;4.50;99.90;;;;;;1856213;76;21535;-80
2021/01/29 01:20:12;;;;;;;5.65;2.45;;;4.60;99.90;;;;;;1859054;76;21077;-80
2021/01/29 01:22:40;;;;;;;8.80;3.12;;;4.70;99.90;;;;;;1855924;76;21105;-79
2021/01/29 01:25:08;;;;;;;7.95;2.90;;;4.70;99.90;;;;;;1854630;76;21582;-78
2021/01/29 01:27:36;;;;;;;10.03;2.77;;;4.70;99.90;;;;;;1856367;76;21234;-79
2021/01/29 01:30:06;;;;;;;6.58;3.17;;;4.60;99.90;;;;;;1857893;76;21175;-80
2021/01/29 01:32:33;;;;;;;7.87;2.80;;;4.60;99.90;;;;;;1855000;76;21077;-79
2021/01/29 01:35:01;;;;;;;7.25;2.85;;;4.70;99.90;;;;;;1857753;76;21073;-79
2021/01/29 01:37:29;;;;;;;11.25;3.02;;;4.80;99.90;;;;;;1856694;76;21752;-78
2021/01/29 01:39:56;;;;;;;8.73;2.98;;;4.80;99.90;;;;;;1857552;76;21097;-78
2021/01/29 01:42:23;;;;;;;9.03;3.22;;;4.80;99.90;;;;;;1856927;76;21097;-78
2021/01/29 01:44:51;;;;;;;8.15;2.92;;;4.80;99.90;;;;;;1857059;76;21129;-78
2021/01/29 01:47:30;;;;;;;10.18;2.80;;;4.90;99.90;;;;;;1858261;76;21152;-78
2021/01/29 01:50:00;;;;;;;8.20;2.50;;;4.90;99.90;;;;;;1860761;76;21194;-78
2021/01/29 01:52:34;;;;;;;7.95;2.80;;;4.90;99.90;;;;;;1857815;76;21094;-78
2021/01/29 01:55:04;;;;;;;5.78;2.60;;;4.80;99.90;;;;;;1855398;76;21049;-77
2021/01/29 01:57:35;;;;;;;9.43;3.55;;;4.90;99.90;;;;;;1863634;73;21049;-78
2021/01/29 02:00:08;;;;;;;6.75;3.12;;;4.80;99.90;;;;;;1913847;73;21483;-80
2021/01/29 02:02:39;;;;;;;9.00;2.90;;;4.80;99.90;;;;;;1912753;73;21152;-79
2021/01/29 02:05:18;;;;;;;6.92;2.98;;;4.90;99.90;;;;;;1910049;73;21105;-79
2021/01/29 02:07:48;;;;;;;5.10;2.62;;;4.90;99.90;;;;;;1887982;73;21246;-80
2021/01/29 02:10:16;;;;;;;11.75;3.15;;;4.90;99.90;;;;;;1913895;73;21099;-81
2021/01/29 02:12:43;;;;;;;8.20;3.30;;;4.90;99.90;;;;;;1916080;73;21092;-79
2021/01/29 02:15:14;;;;;;;10.15;3.15;;;5.00;99.90;;;;;;1918205;73;21078;-81
2021/01/29 02:17:53;;;;;;;7.72;2.98;;;4.90;99.90;;;;;;1919761;73;21196;-81
2021/01/29 02:20:46;;;;;;;10.48;3.45;;;4.90;99.90;;;;;;1917425;73;21042;-80
2021/01/29 02:23:19;;;;;;;7.22;3.10;;;4.80;99.90;;;;;;1914499;73;21105;-79
2021/01/29 02:26:24;;;;;;;7.58;3.42;;;4.90;99.90;;;;;;1915217;73;21041;-79
2021/01/29 02:29:07;;;;;;;6.67;3.55;;;4.80;99.90;;;;;;1915158;73;21067;-78
2021/01/29 02:31:43;;;;;;;8.38;3.75;;;4.70;99.90;;;;;;1919348;73;21118;-79
2021/01/29 02:34:20;;;;;;;12.50;3.72;;;4.70;99.90;;;;;;1916999;73;21136;-79
2021/01/29 02:36:59;;;;;;;10.53;3.47;;;4.70;99.90;;;;;;1913035;72;21042;-79
2021/01/29 02:39:58;;;;;;;7.83;3.90;;;4.80;99.90;;;;;;1912819;73;21142;-79
2021/01/29 02:42:47;;;;;;;9.33;4.10;;;4.80;99.90;;;;;;1921885;73;21031;-79
2021/01/29 02:45:23;;;;;;;9.08;3.52;;;4.70;99.90;;;;;;1919078;73;21116;-79
2021/01/29 02:48:14;;;;;;;11.15;4.15;;;4.80;99.90;;;;;;1918880;73;21153;-79
2021/01/29 02:50:45;;;;;;;9.60;3.90;;;4.70;99.90;;;;;;1917058;73;21141;-78
2021/01/29 02:53:27;;;;;;;12.20;4.47;;;4.60;99.90;;;;;;1915185;73;21826;-78
2021/01/29 02:56:09;;;;;;;9.55;3.90;;;4.50;99.90;;;;;;1916726;73;21179;-79
2021/01/29 02:58:49;;;;;;;;;;;4.40;99.90;;;;;;1919672;73;21073;-79
2021/01/29 03:01:20;;;;;;;9.50;3.55;;;4.40;99.90;;;;;;1922917;73;20138;-79
2021/01/29 03:03:51;;;;;;;9.30;4.05;;;4.50;99.90;;;;;;1914461;73;21136;-79
2021/01/29 03:06:33;;;;;;;8.13;4.00;;;4.40;99.90;;;;;;1918509;73;21166;-79
2021/01/29 03:09:07;;;;;;;;;;;4.60;99.90;;;;;;1923697;73;21117;-79
2021/01/29 03:11:43;;;;;;;8.28;3.98;;;4.60;99.90;;;;;;1916798;73;20104;-78
2021/01/29 03:14:16;;;;;;;11.03;4.30;;;4.70;99.90;;;;;;1907486;73;21683;-79
2021/01/29 03:16:59;;;;;;;9.10;4.28;;;4.60;99.90;;;;;;1920461;73;21110;-81
2021/01/29 03:19:32;;;;;;;15.83;4.42;;;4.60;99.90;;;;;;1919856;73;21118;-80
2021/01/29 03:22:06;;;;;;;6.33;3.72;;;4.50;99.90;;;;;;1917456;73;21183;-80
2021/01/29 03:24:54;;;;;;;8.68;4.45;;;4.50;99.90;;;;;;1915651;73;21015;-81
2021/01/29 03:27:25;;;;;;;6.83;3.58;;;4.60;99.90;;;;;;1911345;73;21046;-80
2021/01/29 03:30:02;;;;;;;7.12;4.05;;;4.40;99.90;;;;;;1917060;73;21202;-80
2021/01/29 03:32:31;;;;;;;9.03;4.30;;;4.40;99.90;;;;;;1913046;73;21134;-81
2021/01/29 03:35:18;;;;;;;9.38;4.60;;;4.50;99.90;;;;;;1918198;73;21116;-80
2021/01/29 03:38:12;;;;;;;8.25;4.10;;;4.50;99.90;;;;;;1914150;73;21142;-80
2021/01/29 03:40:42;;;;;;;8.60;4.83;;;4.50;99.90;;;;;;1916942;73;21093;-79
2021/01/29 03:43:30;;;;;;;7.83;4.70;;;4.50;99.90;;;;;;1920014;73;21179;-80
2021/01/29 03:46:20;;;;;;;10.40;4.65;;;4.40;99.90;;;;;;1914214;73;21437;-81
2021/01/29 03:48:59;;;;;;;8.28;4.50;;;4.40;99.90;;;;;;1917008;73;21356;-82
2021/01/29 03:51:35;;;;;;;11.18;4.58;;;4.40;99.90;;;;;;1915866;73;21202;-78
2021/01/29 03:54:09;;;;;;;11.15;4.22;;;4.40;99.90;;;;;;1917818;73;21038;-78
2021/01/29 03:56:51;;;;;;;8.98;4.78;;;4.40;99.90;;;;;;1912782;73;21168;-78
2021/01/29 03:59:28;;;;;;;;;;;4.40;99.90;;;;;;1921342;73;21154;-80
2021/01/29 04:02:10;;;;;;;8.35;4.83;;;4.20;99.90;;;;;;1913988;73;20174;-78
2021/01/29 04:04:45;;;;;;;12.15;5.08;;;4.30;99.90;;;;;;1915812;73;21263;-79
2021/01/29 04:07:22;;;;;;;7.00;4.50;;;4.30;99.90;;;;;;1918247;73;21043;-80
2021/01/29 04:09:55;;;;;;;12.10;4.95;;;4.30;99.90;;;;;;1912106;73;21418;-80
2021/01/29 04:12:34;;;;;;;12.20;5.10;;;4.20;99.90;;;;;;1918144;73;21719;-80
2021/01/29 04:15:05;;;;;;;10.80;5.20;;;4.20;99.90;;;;;;1914449;73;21031;-80
2021/01/29 04:17:41;;;;;;;9.98;5.47;;;4.30;99.90;;;;;;1912670;73;21067;-80
2021/01/29 04:20:12;;;;;;;7.00;5.40;;;4.40;99.90;;;;;;1916136;73;21161;-80
2021/01/29 04:22:41;;;;;;;14.70;5.90;;;4.30;99.90;;;;;;1914534;73;21105;-78
2021/01/29 04:25:18;;;;;;;11.50;5.78;;;4.40;99.90;;;;;;1916298;73;21101;-80
2021/01/29 04:27:48;;;;;;;8.53;5.97;;;4.40;99.90;;;;;;1916212;73;21199;-80
2021/01/29 04:30:19;;;;;;;11.40;5.33;;;4.40;99.90;;;;;;1913616;73;21110;-79
2021/01/29 04:32:52;;;;;;;11.40;6.08;;;4.30;99.90;;;;;;1914879;73;21086;-80
2021/01/29 04:35:22;;;;;;;8.30;5.70;;;4.30;99.90;;;;;;1918839;73;21148;-79
2021/01/29 04:38:07;;;;;;;8.20;5.37;;;4.40;99.90;;;;;;1916510;73;21660;-80
2021/01/29 04:40:46;;;;;;;14.07;6.05;;;4.40;99.90;;;;;;1916336;73;21154;-79
2021/01/29 04:43:23;;;;;;;11.97;6.20;;;4.40;99.90;;;;;;1911929;73;21045;-77
2021/01/29 04:46:10;;;;;;;11.30;5.87;;;4.30;99.90;;;;;;1921178;73;21145;-77
2021/01/29 04:48:56;;;;;;;11.45;6.35;;;4.40;99.90;;;;;;1918752;73;21255;-77
2021/01/29 04:51:52;;;;;;;10.98;5.78;;;4.30;99.90;;;;;;1916699;73;21062;-77
2021/01/29 04:54:45;;;;;;;9.23;5.30;;;4.30;99.90;;;;;;1918441;73;21134;-78
2021/01/29 04:57:48;;;;;;;11.80;5.35;;;4.30;99.90;;;;;;1911086;72;21184;-80
2021/01/29 05:00:44;;;;;;;10.78;4.85;;;4.20;99.90;;;;;;1924940;73;21182;-80
2021/01/29 05:03:37;;;;;;;9.03;5.10;;;4.20;99.90;;;;;;1912418;73;21106;-79
2021/01/29 05:06:29;;;;;;;8.20;4.83;;;4.00;99.90;;;;;;1922040;73;21154;-79
2021/01/29 05:09:14;;;;;;;8.20;4.90;;;3.90;99.90;;;;;;1918456;73;21130;-79
2021/01/29 05:12:13;;;;;;;7.60;4.62;;;3.90;99.90;;;;;;1919107;73;21081;-79
2021/01/29 05:14:53;;;;;;;9.03;4.47;;;4.00;99.90;;;;;;1916182;73;21141;-78
2021/01/29 05:17:48;;;;;;;11.38;4.05;;;4.10;99.90;;;;;;1869530;73;21083;-77
2021/01/29 05:20:25;;;;;;;8.33;4.60;;;4.20;99.90;;;;;;1922534;73;21180;-78
2021/01/29 05:23:13;;;;;;;7.17;4.40;;;4.20;99.90;;;;;;1916384;73;21114;-77
2021/01/29 05:26:17;;;;;;;10.43;4.50;;;4.20;99.90;;;;;;1915226;73;21171;-80
2021/01/29 05:29:00;;;;;;;6.92;4.12;;;4.10;99.90;;;;;;1915162;73;21116;-79
2021/01/29 05:32:03;;;;;;;11.43;4.50;;;4.10;99.90;;;;;;1913585;73;21094;-78
2021/01/29 05:34:50;;;;;;;10.65;4.15;;;4.10;99.90;;;;;;1919113;73;21219;-76
2021/01/29 05:37:47;;;;;;;7.60;3.72;;;4.10;99.90;;;;;;1874195;74;21133;-77
2021/01/29 05:40:32;;;;;;;8.20;4.22;;;4.30;99.90;;;;;;1920778;73;21173;-77
2021/01/29 05:43:31;;;;;;;8.10;4.42;;;4.30;99.90;;;;;;1921675;73;21098;-76
2021/01/29 05:46:08;;;;;;;8.53;3.72;;;4.10;99.90;;;;;;1921099;73;21067;-79
2021/01/29 05:48:50;;;;;;;9.80;4.15;;;4.10;99.90;;;;;;1912482;73;21190;-79
2021/01/29 05:51:27;;;;;;;7.92;3.65;;;4.10;99.90;;;;;;1894581;74;21069;-78
2021/01/29 05:54:09;;;;;;;9.95;4.12;;;4.10;99.90;;;;;;1896689;74;21101;-80
2021/01/29 05:57:01;;;;;;;6.92;3.85;;;4.00;99.90;;;;;;1899987;73;21395;-78
2021/01/29 05:59:55;;;;;;;10.15;4.28;;;4.00;99.90;;;;;;1900552;73;21757;-76
2021/01/29 06:02:44;;;;;;;8.00;3.67;;;4.10;99.90;;;;;;1855130;73;21196;-77
2021/01/29 06:05:34;;;;;;;6.20;3.40;;;4.00;99.90;;;;;;1907225;73;21073;-77
2021/01/29 06:08:27;;;;;;;7.75;3.77;;;4.10;99.90;;;;;;1917213;73;21073;-77
2021/01/29 06:11:20;;;;;;;10.15;3.85;;;4.10;99.90;;;;;;1914432;73;21165;-78
2021/01/29 06:14:15;;;;;;;9.40;3.85;;;4.00;99.90;;;;;;1912684;73;21026;-75
2021/01/29 06:17:19;;;;;;;8.95;3.87;;;3.90;99.90;;;;;;1917025;73;21031;-76
2021/01/29 06:20:16;;;;;;;8.98;4.10;;;3.90;99.90;;;;;;1913458;73;21051;-76
2021/01/29 06:23:05;;;;;;;6.55;4.03;;;4.00;99.90;;;;;;1854866;76;21268;-76
2021/01/29 06:25:47;;;;;;;6.75;3.92;;;3.90;99.90;;;;;;1855510;76;21147;-76
2021/01/29 06:28:32;;;;;;;8.15;4.30;;;4.00;99.90;;;;;;1855073;76;21055;-78
2021/01/29 06:31:05;;;;;;;8.50;4.03;;;4.00;99.90;;;;;;1854600;76;21210;-78
2021/01/29 06:33:52;;;;;;;10.53;4.72;;;3.90;99.90;;;;;;1854760;76;21515;-78
2021/01/29 06:36:26;;;;;;;12.50;5.22;;;3.90;99.90;;;;;;1850949;75;21112;-79
2021/01/29 06:39:22;;;;;;;10.98;4.15;;;3.80;99.90;;;;;;1852465;76;21203;-78
2021/01/29 06:42:09;;;;;;;10.25;4.03;;;3.60;99.90;;;;;;1854327;76;21154;-77
2021/01/29 06:44:42;;;;;;;5.90;3.85;;;3.60;99.90;;;;;;1851768;76;21101;-77
2021/01/29 06:47:13;;;;;;;7.95;3.52;;;3.70;99.90;;;;;;1851195;76;21147;-80
2021/01/29 06:50:09;;;;;;;7.90;3.58;;;3.70;99.90;;;;;;1852871;76;22429;-78
2021/01/29 06:52:46;;;;;;;9.55;4.28;;;3.70;99.90;;;;;;1853074;76;21211;-77
2021/01/29 06:55:43;;;;;;;10.10;4.30;;;3.90;99.90;;;;;;1850845;76;22344;-75
2021/01/29 06:58:38;;;;;;;6.85;3.67;;;3.90;99.90;;;;;;1855104;76;21700;-76
2021/01/29 07:01:14;;;;;;;10.48;4.42;;;3.90;99.90;;;;;;1854746;76;21163;-77
2021/01/29 07:04:18;;;;;;;6.85;3.95;;;3.80;99.90;;;;;;1853369;76;21717;-77
2021/01/29 07:06:55;;;;;;;7.92;3.90;;;3.70;99.90;;;;;;1853824;76;21109;-77
2021/01/29 07:09:25;;;;;;;7.47;4.25;;;3.70;99.90;;;;;;1810761;76;21199;-77
2021/01/29 07:12:07;;;;;;;6.72;4.60;;;3.70;99.90;;;;;;1854700;76;21108;-77
2021/01/29 07:14:38;;;;;;;10.80;4.58;;;3.70;99.90;;;;;;1851608;76;21295;-76
2021/01/29 07:17:17;;;;;;;8.50;4.45;;;3.80;99.90;;;;;;1852291;76;21105;-75
2021/01/29 07:20:18;;;;;;;9.25;4.40;;;3.90;99.90;;;;;;1854229;76;21546;-76
2021/01/29 07:22:55;;;;;;;7.35;4.90;;;3.80;99.90;;;;;;1855761;76;21144;-74
2021/01/29 07:25:46;;;;;;;7.72;5.12;;;3.70;99.90;;;;;;1849484;76;21151;-75
2021/01/29 07:28:29;;;;;;;8.43;4.92;;;3.80;99.90;;;;;;1853769;76;21183;-75
2021/01/29 07:31:14;;;;;;;9.93;4.55;;;3.70;99.90;;;;;;1855601;76;21206;-77
2021/01/29 07:33:54;;;;;;;9.38;4.95;;;3.70;99.90;;;;;;1800964;76;21602;-76
2021/01/29 07:36:41;;;;;;;8.38;4.87;;;3.60;99.90;;;;;;1855886;76;21147;-76
2021/01/29 07:39:11;;;;;;;8.48;4.78;;;3.70;99.90;;;;;;1854309;76;21123;-73
2021/01/29 07:41:48;;;;;;;10.60;4.50;;;3.80;99.90;;;;;;1852454;76;21991;-74
2021/01/29 07:44:39;;;;;;;8.10;4.72;;;3.80;99.90;;;;;;1854482;76;21112;-73
2021/01/29 07:47:19;;;;;;;8.23;3.87;;;3.90;99.90;;;;;;1844806;76;21230;-74
2021/01/29 07:50:26;;;;;;;7.67;4.15;;;3.80;99.90;;;;;;1857068;76;21098;-73
2021/01/29 07:52:56;;;;;;;6.72;4.30;;;3.80;99.90;;;;;;1852586;76;21151;-74
2021/01/29 07:55:28;;;;;;;5.67;3.80;;;3.80;99.90;;;;;;1855649;76;21761;-75
2021/01/29 07:58:09;;;;;;;;;;;3.70;99.90;;;;;;1853691;76;21168;-74
2021/01/29 08:00:51;;;;;;;9.68;4.60;;;3.70;99.90;;;;;;1852401;76;20201;-74
2021/01/29 08:03:55;;;;;;;7.80;4.60;;;3.70;99.90;;;;;;1824247;76;21616;-75
2021/01/29 08:06:41;;;;;;;6.65;4.28;;;3.80;99.90;;;;;;1855170;76;21168;-74
2021/01/29 08:09:27;;;;;;;6.87;4.20;;;3.80;99.90;;;;;;1852981;76;21125;-73
2021/01/29 08:12:01;;;;;;;10.20;4.47;;;3.90;99.90;;;;;;1855544;76;21194;-73
2021/01/29 08:15:05;;;;;;;8.98;4.47;;;3.80;99.90;;;;;;1855735;76;22160;-73
2021/01/29 08:17:56;;;;;;;6.12;3.83;;;3.80;99.90;;;;;;1855436;76;21323;-73
2021/01/29 08:20:48;;;;;;;8.28;3.83;;;3.80;99.90;;;;;;1855187;76;21826;-75
2021/01/29 08:23:50;;;;;;;8.68;5.00;;;3.80;99.90;;;;;;1853517;76;21091;-75
2021/01/29 08:26:23;;;;;;;8.67;3.30;;;3.70;99.90;;;;;;1855316;76;21411;-75
2021/01/29 08:29:15;;;;;;;7.37;3.90;;;3.70;99.90;;;;;;1854298;76;21174;-76
2021/01/29 08:32:09;;;;;;;8.90;3.98;;;3.80;99.90;;;;;;1858568;76;21097;-75
2021/01/29 08:35:01;;;;;;;8.75;4.80;;;3.80;99.90;;;;;;1853153;76;21105;-73
2021/01/29 08:37:48;;;;;;;9.98;4.30;;;3.70;99.90;;;;;;1852991;76;22537;-74
2021/01/29 08:40:30;;;;;;;8.03;4.00;;;3.80;99.90;;;;;;1808283;76;21141;-73
2021/01/29 08:43:22;;;;;;;9.28;3.85;;;3.60;99.90;;;;;;1855888;76;21166;-73
2021/01/29 08:45:58;;;;;;;9.20;4.00;;;3.60;99.90;;;;;;1816599;79;22139;-72
2021/01/29 08:48:32;;;;;;;5.92;3.72;;;3.60;99.90;;;;;;1834059;76;21109;-74
2021/01/29 08:51:08;;;;;;;6.70;4.00;;;3.60;99.90;;;;;;1818590;77;22086;-73
2021/01/29 08:53:57;;;;;;;7.53;4.42;;;3.50;99.90;;;;;;1816712;77;21156;-73
2021/01/29 08:56:31;;;;;;;8.45;4.37;;;3.70;99.90;;;;;;1816254;77;21118;-74
2021/01/29 08:59:10;;;;;;;9.18;4.80;;;3.70;99.90;;;;;;1813156;78;21137;-76
2021/01/29 09:01:55;;;;;;;10.58;4.97;;;3.70;99.90;;;;;;1818590;77;21119;-74
2021/01/29 09:04:50;;;;;;;7.70;4.50;;;3.80;99.90;;;;;;1817037;77;21565;-75
2021/01/29 09:07:33;;;;;;;10.05;5.25;;;4.00;99.90;;;;;;1817698;77;21110;-75
2021/01/29 09:10:09;;;;;;;13.38;5.22;;;3.90;99.90;;;;;;1820698;77;21640;-75
2021/01/29 09:12:37;;;;;;;8.95;5.35;;;3.80;99.90;;;;;;1772772;77;21140;-74
2021/01/29 09:15:08;;;;;;;8.58;4.87;;;3.90;99.90;;;;;;1818830;77;21560;-75
2021/01/29 09:17:53;;;;;;;9.60;5.53;;;4.00;99.90;;;;;;1818849;77;21146;-75
2021/01/29 09:20:31;;;;;;;8.35;5.65;;;3.80;99.90;;;;;;1821842;77;21087;-75
2021/01/29 09:23:10;;;;;;;11.97;5.62;;;3.80;99.90;;;;;;1816983;77;21035;-74
2021/01/29 09:25:45;;;;;;;8.63;5.60;;;3.90;99.90;;;;;;1820816;77;21118;-75
2021/01/29 09:28:18;;;;;;;13.22;6.75;;;3.90;99.90;;;;;;1817081;77;21531;-74
2021/01/29 09:30:56;;;;;;;8.68;5.67;;;3.70;99.90;;;;;;1816825;77;21543;-75
2021/01/29 09:33:42;;;;;;;9.18;5.97;;;3.60;99.90;;;;;;1820776;77;21750;-75
2021/01/29 09:36:24;;;;;;;12.15;6.15;;;3.60;99.90;;;;;;1820923;77;21117;-75
2021/01/29 09:39:09;;;;;;;10.70;7.10;;;3.70;99.90;;;;;;1818823;77;21195;-75
2021/01/29 09:42:16;;;;;;;9.68;6.58;;;3.60;99.90;;;;;;1818762;77;21246;-75
2021/01/29 09:44:47;;;;;;;8.30;6.15;;;3.50;99.90;;;;;;1798567;77;21138;-76
2021/01/29 09:47:21;;;;;;;11.38;7.25;;;3.60;99.90;;;;;;1806636;77;21169;-76
2021/01/29 09:49:51;;;;;;;10.10;7.03;;;3.50;99.90;;;;;;1806990;78;21120;-75
2021/01/29 09:52:32;;;;;;;10.25;6.95;;;3.70;99.90;;;;;;1817980;78;21145;-75
2021/01/29 09:55:17;;;;;;;11.30;7.40;;;3.70;99.90;;;;;;1818978;79;21186;-74
2021/01/29 09:57:51;;;;;;;11.63;7.30;;;3.70;99.90;;;;;;1815621;77;21854;-74
2021/01/29 10:00:30;;;;;;;11.22;7.10;;;3.70;99.90;;;;;;1806614;77;21237;-76
2021/01/29 10:03:04;;;;;;;12.98;7.85;;;3.60;99.90;;;;;;1817314;78;21417;-77
2021/01/29 10:05:38;;;;;;;15.70;7.72;;;3.70;99.90;;;;;;1815937;78;21584;-77
2021/01/29 10:08:17;;;;;;;10.68;7.03;;;3.80;99.90;;;;;;1812270;78;21236;-74
2021/01/29 10:11:07;;;;;;;10.25;7.65;;;4.00;99.90;;;;;;1816553;77;21485;-73
2021/01/29 10:13:56;;;;;;;11.38;7.72;;;4.00;99.90;;;;;;1814312;78;21507;-73
2021/01/29 10:16:39;;;;;;;8.48;6.80;;;4.00;99.90;;;;;;1818109;78;21638;-73
2021/01/29 10:19:18;;;;;;;11.80;7.12;;;4.00;99.90;;;;;;1816835;78;21137;-73
2021/01/29 10:22:01;;;;;;;8.85;6.97;;;4.00;99.90;;;;;;1819123;78;21132;-73
2021/01/29 10:24:46;;;;;;;11.25;7.10;;;3.90;99.90;;;;;;1816263;78;21133;-72
2021/01/29 10:27:20;;;;;;;10.65;7.00;;;4.00;99.90;;;;;;1814960;78;21540;-74
2021/01/29 10:29:50;;;;;;;10.32;7.00;;;4.00;99.90;;;;;;1816203;78;21117;-73
2021/01/29 10:32:20;;;;;;;11.28;6.83;;;4.10;99.90;;;;;;1815991;78;21174;-73
2021/01/29 10:35:06;;;;;;;11.30;6.30;;;4.20;99.90;;;;;;1812941;77;21488;-72
2021/01/29 10:37:42;;;;;;;11.35;6.05;;;4.10;99.90;;;;;;1816594;78;21144;-75
2021/01/29 10:40:31;;;;;;;11.88;7.12;;;4.00;99.90;;;;;;1812863;77;21606;-73
2021/01/29 10:43:07;;;;;;;8.28;6.28;;;3.90;99.90;;;;;;1818148;78;21579;-73
2021/01/29 10:45:47;;;;;;;10.70;6.85;;;3.90;99.90;;;;;;1801590;78;21563;-73
2021/01/29 10:48:20;;;;;;;9.85;6.92;;;3.90;99.90;;;;;;1818551;77;21272;-72
2021/01/29 10:50:53;;;;;;;8.40;5.92;;;4.00;99.90;;;;;;1814061;77;21725;-74
2021/01/29 10:53:24;;;;;;;7.62;5.70;;;4.00;99.90;;;;;;1813522;78;21101;-76
2021/01/29 10:55:55;;;;;;;9.43;6.17;;;3.90;99.90;;;;;;1817025;77;21204;-75
2021/01/29 10:58:50;;;;;;;9.05;6.08;;;4.00;99.90;;;;;;1813155;77;21141;-74
2021/01/29 11:01:38;;;;;;;9.68;5.97;;;4.10;99.90;;;;;;1814964;77;21116;-78
2021/01/29 11:04:12;;;;;;;6.78;5.22;;;4.20;99.90;;;;;;1815553;77;21187;-78
2021/01/29 11:06:45;;;;;;;7.90;5.65;;;4.10;99.90;;;;;;1816761;78;21211;-77
2021/01/29 11:09:18;;;;;;;7.83;5.25;;;4.20;99.90;;;;;;1816618;78;21137;-77
2021/01/29 11:11:49;;;;;;;7.20;5.25;;;4.20;99.90;;;;;;1815974;78;21152;-76
2021/01/29 11:14:25;;;;;;;8.50;5.70;;;4.20;99.90;;;;;;1819168;78;21649;-76
2021/01/29 11:17:05;;;;;;;7.55;5.10;;;4.30;99.90;;;;;;1813622;78;21545;-75
2021/01/29 11:19:41;;;;;;;7.60;4.80;;;4.20;99.90;;;;;;1793132;77;21587;-76
2021/01/29 11:22:39;;;;;;;6.95;4.62;;;4.10;99.90;;;;;;1809107;77;21480;-75
2021/01/29 11:25:16;;;;;;;6.70;4.65;;;4.20;99.90;;;;;;1810039;78;21164;-75
2021/01/29 11:27:58;;;;;;;8.75;4.60;;;4.30;99.90;;;;;;1810860;78;21204;-75
2021/01/29 11:30:34;;;;;;;7.58;4.37;;;4.30;99.90;;;;;;1808262;78;22236;-76
2021/01/29 11:33:08;;;;;;;7.05;4.53;;;4.20;99.90;;;;;;1813877;77;21035;-77
2021/01/29 11:36:10;;;;;;;8.03;4.65;;;4.10;99.90;;;;;;1815933;77;21195;-77
2021/01/29 11:38:44;;;;;;;7.17;4.60;;;4.10;99.90;;;;;;1821291;78;21644;-77
2021/01/29 11:41:29;;;;;;;7.00;4.42;;;4.10;99.90;;;;;;1818591;78;21202;-78
2021/01/29 11:44:13;;;;;;;7.42;4.55;;;4.10;99.90;;;;;;1813343;78;21531;-77
2021/01/29 11:46:50;;;;;;;6.92;4.75;;;4.10;99.90;;;;;;1818853;78;21593;-77
2021/01/29 11:49:20;;;;;;;5.70;4.60;;;4.00;99.90;;;;;;1814414;78;21196;-76
2021/01/29 11:51:53;;;;;;;6.45;4.65;;;4.20;99.90;;;;;;1813237;78;21113;-76
2021/01/29 11:54:57;;;;;;;5.90;4.30;;;4.10;99.90;;;;;;1817914;78;21237;-76
2021/01/29 11:57:51;;;;;;;8.43;4.72;;;4.20;99.90;;;;;;1815721;78;21183;-76
2021/01/29 12:00:28;;;;;;;5.87;4.40;;;4.20;99.90;;;;;;1816411;78;21113;-76
2021/01/29 12:03:12;;;;;;;5.37;4.15;;;4.10;99.90;;;;;;1821635;73;21284;31
2021/01/29 12:05:50;;;;;;;5.35;4.08;;;4.20;99.90;;;;;;1816543;77;21140;-81
2021/01/29 12:08:29;;;;;;;9.75;4.55;;;4.20;99.90;;;;;;1818818;77;21247;-81
2021/01/29 12:11:24;;;;;;;5.55;4.58;;;4.30;99.90;;;;;;1821877;77;21178;-82
2021/01/29 12:13:54;;;;;;;5.08;3.65;;;4.30;99.90;;;;;;1819959;77;21132;-81
2021/01/29 12:16:28;;;;;;;6.90;4.33;;;4.20;99.90;;;;;;1815136;77;21083;-83
2021/01/29 12:18:57;;;;;;;5.55;4.28;;;4.20;99.90;;;;;;1857324;75;21195;-82
2021/01/29 12:21:30;;;;;;;8.08;4.17;;;4.30;99.90;;;;;;1862676;75;21119;-83
2021/01/29 12:24:21;;;;;;;7.75;3.87;;;4.40;99.90;;;;;;1858918;75;21193;-82
2021/01/29 12:26:57;;;;;;;6.95;3.75;;;4.30;99.90;;;;;;1808388;77;21133;-81
2021/01/29 12:29:36;;;;;;;6.28;4.40;;;4.50;99.90;;;;;;1817142;77;21137;-81
2021/01/29 12:32:26;;;;;;;6.17;3.83;;;4.50;99.90;;;;;;1821550;77;21650;-81
2021/01/29 12:35:12;;;;;;;4.83;3.95;;;4.50;99.90;;;;;;1791083;78;21313;-87
2021/01/29 12:37:45;;;;;;;4.95;3.80;;;4.50;99.90;;;;;;1789885;78;21266;-82
2021/01/29 12:40:40;;;;;;;5.50;3.70;;;4.30;99.90;;;;;;1787349;78;21196;-84
2021/01/29 12:43:16;;;;;;;6.40;3.92;;;4.30;99.90;;;;;;1789057;77;21154;-84
2021/01/29 12:45:51;;;;;;;5.55;4.08;;;4.40;99.90;;;;;;1789513;78;21176;-81
2021/01/29 12:48:25;;;;;;;4.33;3.40;;;4.40;99.90;;;;;;1862722;75;21244;-83
2021/01/29 12:51:03;;;;;;;4.95;3.58;;;4.40;99.90;;;;;;1858961;75;21099;-85
2021/01/29 12:53:44;;;;;;;6.45;3.50;;;4.40;99.90;;;;;;1782259;79;21150;-82
2021/01/29 12:56:35;;;;;;;7.72;4.15;;;4.20;99.90;;;;;;1788282;78;21089;-83
2021/01/29 12:59:04;;;;;;;5.03;3.70;;;4.20;99.90;;;;;;1810781;77;21116;-83
2021/01/29 13:01:40;;;;;;;5.25;3.40;;;4.30;99.90;;;;;;1819985;77;21555;-83
2021/01/29 13:04:20;;;;;;;5.15;3.35;;;4.30;99.90;;;;;;1783427;79;21228;-84
2021/01/29 13:07:06;;;;;;;5.30;3.77;;;4.20;99.90;;;;;;1784358;80;21148;-80
2021/01/29 13:09:59;;;;;;;4.95;3.17;;;4.10;99.90;;;;;;1808900;77;21121;-80
2021/01/29 13:12:35;;;;;;;5.20;3.47;;;4.10;99.90;;;;;;1861025;75;21159;-80
2021/01/29 13:15:08;;;;;;;5.08;3.50;;;4.00;99.90;;;;;;1862069;75;21132;-79
2021/01/29 13:17:42;;;;;;;5.10;3.77;;;4.00;99.90;;;;;;1863316;75;21044;-80
2021/01/29 13:20:16;;;;;;;4.87;3.62;;;4.00;99.90;;;;;;1816062;77;21231;-81
2021/01/29 13:22:46;;;;;;;4.00;3.30;;;4.10;99.90;;;;;;1817935;77;21558;-81
2021/01/29 13:25:29;;;;;;;4.45;3.50;;;4.10;99.90;;;;;;1820020;77;21041;-80
2021/01/29 13:28:05;;;;;;;3.87;3.25;;;4.20;99.90;;;;;;1819401;77;21200;-80
2021/01/29 13:30:39;;;;;;;5.30;3.60;;;4.10;99.90;;;;;;1821318;77;21167;-85
2021/01/29 13:33:27;;;;;;;5.12;3.65;;;4.30;99.90;;;;;;1818095;77;21127;-82
2021/01/29 13:36:10;;;;;;;5.35;3.92;;;4.20;99.90;;;;;;1818841;77;21162;-82
2021/01/29 13:38:41;;;;;;;6.37;4.58;;;4.20;99.90;;;;;;1813089;78;21155;-84
2021/01/29 13:41:11;;;;;;;5.97;4.50;;;4.20;99.90;;;;;;1785749;78;21658;-84
2021/01/29 13:43:41;;;;;;;6.72;4.25;;;4.20;99.90;;;;;;1813451;77;21145;-82
2021/01/29 13:46:20;;;;;;;5.15;3.90;;;4.20;99.90;;;;;;1819851;77;21132;-84
2021/01/29 13:48:48;;;;;;;6.35;3.72;;;4.30;99.90;;;;;;1812923;78;21105;-79
2021/01/29 13:51:30;;;;;;;5.90;3.75;;;4.20;99.90;;;;;;1816832;77;21820;-83
2021/01/29 13:53:59;;;;;;;3.92;3.00;;;4.20;99.90;;;;;;1817572;77;21604;-84
2021/01/29 13:56:39;;;;;;;5.65;3.30;;;4.20;99.90;;;;;;1816744;77;21173;-83
2021/01/29 13:59:15;;;;;;;5.28;3.55;;;4.20;99.90;;;;;;1816966;77;21840;-84